sensor_id;sensor_type;location;lat;lon;timestamp;P1;durP1;ratioP1;P2;durP2;ratioP2
40717;SDS011;26405;51.850;-2.246;2024-03-22T00:01:00;14.75;;;4.80;;
40717;SDS011;26405;51.850;-2.246;2024-03-22T00:03:25;16.40;;;4.70;;
40717;SDS011;26405;51.850;-2.246;2024-03-22T00:08:20;18.20;;;4.80;;
40717;SDS011;26405;51.850;-2.246;2024-03-22T00:10:46;18.05;;;4.60;;
40717;SDS011;26405;51.850;-2.246;2024-03-22T00:13:11;13.32;;;4.22;;
40717;SDS011;26405;51.850;-2.246;2024-03-22T00:15:36;15.90;;;4.70;;
40717;SDS011;26405;51.850;-2.246;2024-03-22T00:18:02;18.23;;;5.13;;
40717;SDS011;26405;51.850;-2.246;2024-03-22T00:20:27;16.67;;;4.57;;
40717;SDS011;26405;51.850;-2.246;2024-03-22T00:22:52;17.05;;;5.25;;
40717;SDS011;26405;51.850;-2.246;2024-03-22T00:25:18;20.02;;;5.05;;
40717;SDS011;26405;51.850;-2.246;2024-03-22T00:27:43;17.17;;;4.82;;
40717;SDS011;26405;51.850;-2.246;2024-03-22T00:30:08;17.00;;;5.00;;
40717;SDS011;26405;51.850;-2.246;2024-03-22T00:32:34;16.23;;;4.70;;
40717;SDS011;26405;51.850;-2.246;2024-03-22T00:34:59;16.48;;;4.57;;
40717;SDS011;26405;51.850;-2.246;2024-03-22T00:37:24;15.88;;;5.43;;
40717;SDS011;26405;51.850;-2.246;2024-03-22T00:39:49;15.40;;;4.40;;
40717;SDS011;26405;51.850;-2.246;2024-03-22T00:42:15;17.25;;;5.00;;
40717;SDS011;26405;51.850;-2.246;2024-03-22T00:44:40;14.68;;;4.50;;
40717;SDS011;26405;51.850;-2.246;2024-03-22T00:47:06;19.67;;;5.22;;
40717;SDS011;26405;51.850;-2.246;2024-03-22T00:49:31;12.77;;;4.53;;
40717;SDS011;26405;51.850;-2.246;2024-03-22T00:51:56;18.88;;;5.50;;
40717;SDS011;26405;51.850;-2.246;2024-03-22T00:54:22;17.35;;;4.97;;
40717;SDS011;26405;51.850;-2.246;2024-03-22T00:56:48;16.65;;;5.10;;
40717;SDS011;26405;51.850;-2.246;2024-03-22T00:59:13;18.67;;;5.07;;
40717;SDS011;26405;51.850;-2.246;2024-03-22T01:01:38;18.58;;;5.10;;
40717;SDS011;26405;51.850;-2.246;2024-03-22T01:04:04;17.20;;;5.05;;
40717;SDS011;26405;51.850;-2.246;2024-03-22T01:06:29;17.55;;;5.30;;
40717;SDS011;26405;51.850;-2.246;2024-03-22T01:08:55;18.23;;;4.68;;
40717;SDS011;26405;51.850;-2.246;2024-03-22T01:11:20;17.73;;;4.97;;
40717;SDS011;26405;51.850;-2.246;2024-03-22T01:13:45;13.80;;;4.68;;
40717;SDS011;26405;51.850;-2.246;2024-03-22T01:16:10;14.85;;;4.45;;
40717;SDS011;26405;51.850;-2.246;2024-03-22T01:18:36;16.20;;;4.78;;
40717;SDS011;26405;51.850;-2.246;2024-03-22T01:21:01;18.67;;;4.95;;
40717;SDS011;26405;51.850;-2.246;2024-03-22T01:23:27;16.80;;;4.70;;
40717;SDS011;26405;51.850;-2.246;2024-03-22T01:25:54;16.73;;;4.63;;
40717;SDS011;26405;51.850;-2.246;2024-03-22T01:28:19;15.88;;;4.22;;
40717;SDS011;26405;51.850;-2.246;2024-03-22T01:30:44;15.88;;;4.07;;
40717;SDS011;26405;51.850;-2.246;2024-03-22T01:33:10;18.13;;;4.15;;
40717;SDS011;26405;51.850;-2.246;2024-03-22T01:35:35;18.33;;;3.78;;
40717;SDS011;26405;51.850;-2.246;2024-03-22T01:38:00;14.80;;;4.47;;
40717;SDS011;26405;51.850;-2.246;2024-03-22T01:40:25;13.43;;;4.13;;
40717;SDS011;26405;51.850;-2.246;2024-03-22T01:42:57;16.33;;;4.32;;
40717;SDS011;26405;51.850;-2.246;2024-03-22T01:45:22;13.63;;;3.90;;
40717;SDS011;26405;51.850;-2.246;2024-03-22T01:47:49;13.75;;;4.30;;
40717;SDS011;26405;51.850;-2.246;2024-03-22T01:50:15;14.68;;;4.10;;
40717;SDS011;26405;51.850;-2.246;2024-03-22T01:52:40;17.02;;;4.40;;
40717;SDS011;26405;51.850;-2.246;2024-03-22T01:55:06;16.15;;;4.20;;
40717;SDS011;26405;51.850;-2.246;2024-03-22T01:57:32;14.98;;;4.13;;
40717;SDS011;26405;51.850;-2.246;2024-03-22T01:59:58;15.77;;;4.20;;
40717;SDS011;26405;51.850;-2.246;2024-03-22T02:02:24;11.48;;;4.15;;
40717;SDS011;26405;51.850;-2.246;2024-03-22T02:04:50;14.65;;;4.00;;
40717;SDS011;26405;51.850;-2.246;2024-03-22T02:07:15;17.05;;;4.63;;
40717;SDS011;26405;51.850;-2.246;2024-03-22T02:09:41;12.40;;;4.28;;
40717;SDS011;26405;51.850;-2.246;2024-03-22T02:12:06;12.45;;;3.67;;
40717;SDS011;26405;51.850;-2.246;2024-03-22T02:14:31;14.70;;;4.60;;
40717;SDS011;26405;51.850;-2.246;2024-03-22T02:16:57;12.30;;;3.72;;
40717;SDS011;26405;51.850;-2.246;2024-03-22T02:19:22;13.15;;;4.45;;
40717;SDS011;26405;51.850;-2.246;2024-03-22T02:21:47;13.05;;;3.92;;
40717;SDS011;26405;51.850;-2.246;2024-03-22T02:24:12;15.13;;;4.15;;
40717;SDS011;26405;51.850;-2.246;2024-03-22T02:26:38;9.88;;;3.42;;
40717;SDS011;26405;51.850;-2.246;2024-03-22T02:29:03;15.35;;;3.67;;
40717;SDS011;26405;51.850;-2.246;2024-03-22T02:31:29;12.85;;;3.78;;
40717;SDS011;26405;51.850;-2.246;2024-03-22T02:33:55;16.58;;;4.22;;
40717;SDS011;26405;51.850;-2.246;2024-03-22T02:36:20;11.93;;;3.70;;
40717;SDS011;26405;51.850;-2.246;2024-03-22T02:38:45;13.38;;;3.80;;
40717;SDS011;26405;51.850;-2.246;2024-03-22T02:41:10;13.20;;;3.47;;
40717;SDS011;26405;51.850;-2.246;2024-03-22T02:43:36;14.95;;;3.78;;
40717;SDS011;26405;51.850;-2.246;2024-03-22T02:46:01;13.10;;;3.58;;
40717;SDS011;26405;51.850;-2.246;2024-03-22T02:48:26;13.18;;;3.70;;
40717;SDS011;26405;51.850;-2.246;2024-03-22T02:50:55;9.05;;;3.40;;
40717;SDS011;26405;51.850;-2.246;2024-03-22T02:53:20;12.68;;;3.53;;
40717;SDS011;26405;51.850;-2.246;2024-03-22T02:55:45;11.30;;;3.50;;
40717;SDS011;26405;51.850;-2.246;2024-03-22T02:58:11;11.85;;;3.65;;
40717;SDS011;26405;51.850;-2.246;2024-03-22T03:00:39;11.98;;;3.55;;
40717;SDS011;26405;51.850;-2.246;2024-03-22T03:03:05;14.88;;;3.50;;
40717;SDS011;26405;51.850;-2.246;2024-03-22T03:05:30;11.73;;;3.40;;
40717;SDS011;26405;51.850;-2.246;2024-03-22T03:07:55;9.82;;;3.30;;
40717;SDS011;26405;51.850;-2.246;2024-03-22T03:10:20;11.63;;;3.33;;
40717;SDS011;26405;51.850;-2.246;2024-03-22T03:15:30;10.13;;;3.28;;
40717;SDS011;26405;51.850;-2.246;2024-03-22T03:17:55;11.40;;;3.80;;
40717;SDS011;26405;51.850;-2.246;2024-03-22T03:20:20;10.40;;;3.78;;
40717;SDS011;26405;51.850;-2.246;2024-03-22T03:22:46;11.82;;;3.47;;
40717;SDS011;26405;51.850;-2.246;2024-03-22T03:25:11;9.80;;;3.40;;
40717;SDS011;26405;51.850;-2.246;2024-03-22T03:27:36;9.75;;;3.38;;
40717;SDS011;26405;51.850;-2.246;2024-03-22T03:30:02;11.02;;;3.75;;
40717;SDS011;26405;51.850;-2.246;2024-03-22T03:32:27;8.75;;;3.50;;
40717;SDS011;26405;51.850;-2.246;2024-03-22T03:34:53;11.85;;;3.70;;
40717;SDS011;26405;51.850;-2.246;2024-03-22T03:37:18;11.63;;;3.60;;
40717;SDS011;26405;51.850;-2.246;2024-03-22T03:39:43;11.88;;;3.72;;
40717;SDS011;26405;51.850;-2.246;2024-03-22T03:42:09;9.48;;;3.42;;
40717;SDS011;26405;51.850;-2.246;2024-03-22T03:44:34;10.50;;;3.40;;
40717;SDS011;26405;51.850;-2.246;2024-03-22T03:47:02;11.48;;;3.45;;
40717;SDS011;26405;51.850;-2.246;2024-03-22T03:49:28;11.15;;;3.17;;
40717;SDS011;26405;51.850;-2.246;2024-03-22T03:51:53;12.77;;;3.50;;
40717;SDS011;26405;51.850;-2.246;2024-03-22T03:54:18;7.82;;;3.00;;
40717;SDS011;26405;51.850;-2.246;2024-03-22T03:56:44;11.45;;;3.38;;
40717;SDS011;26405;51.850;-2.246;2024-03-22T03:59:09;11.90;;;3.40;;
40717;SDS011;26405;51.850;-2.246;2024-03-22T04:01:34;6.72;;;2.92;;
40717;SDS011;26405;51.850;-2.246;2024-03-22T04:04:00;7.38;;;2.78;;
40717;SDS011;26405;51.850;-2.246;2024-03-22T04:06:25;9.85;;;3.13;;
40717;SDS011;26405;51.850;-2.246;2024-03-22T04:08:50;7.30;;;3.13;;
40717;SDS011;26405;51.850;-2.246;2024-03-22T04:11:16;9.75;;;3.33;;
40717;SDS011;26405;51.850;-2.246;2024-03-22T04:13:41;8.25;;;3.10;;
40717;SDS011;26405;51.850;-2.246;2024-03-22T04:16:06;11.80;;;3.30;;
40717;SDS011;26405;51.850;-2.246;2024-03-22T04:18:32;10.68;;;3.45;;
40717;SDS011;26405;51.850;-2.246;2024-03-22T04:20:57;10.02;;;3.15;;
40717;SDS011;26405;51.850;-2.246;2024-03-22T04:23:23;6.18;;;2.80;;
40717;SDS011;26405;51.850;-2.246;2024-03-22T04:25:53;7.55;;;3.00;;
40717;SDS011;26405;51.850;-2.246;2024-03-22T04:28:18;8.82;;;3.00;;
40717;SDS011;26405;51.850;-2.246;2024-03-22T04:30:44;7.93;;;3.03;;
40717;SDS011;26405;51.850;-2.246;2024-03-22T04:33:18;6.35;;;2.90;;
40717;SDS011;26405;51.850;-2.246;2024-03-22T04:35:47;9.02;;;2.92;;
40717;SDS011;26405;51.850;-2.246;2024-03-22T04:38:12;6.00;;;2.70;;
40717;SDS011;26405;51.850;-2.246;2024-03-22T04:40:37;6.68;;;3.08;;
40717;SDS011;26405;51.850;-2.246;2024-03-22T04:43:02;6.28;;;2.75;;
40717;SDS011;26405;51.850;-2.246;2024-03-22T04:45:28;5.85;;;2.50;;
40717;SDS011;26405;51.850;-2.246;2024-03-22T04:47:53;7.93;;;2.75;;
40717;SDS011;26405;51.850;-2.246;2024-03-22T04:50:18;5.65;;;2.40;;
40717;SDS011;26405;51.850;-2.246;2024-03-22T04:52:44;6.50;;;2.75;;
40717;SDS011;26405;51.850;-2.246;2024-03-22T04:55:09;7.50;;;2.60;;
40717;SDS011;26405;51.850;-2.246;2024-03-22T04:57:34;7.40;;;2.50;;
40717;SDS011;26405;51.850;-2.246;2024-03-22T05:00:00;7.65;;;2.63;;
40717;SDS011;26405;51.850;-2.246;2024-03-22T05:02:25;5.18;;;2.50;;
40717;SDS011;26405;51.850;-2.246;2024-03-22T05:04:50;3.60;;;2.35;;
40717;SDS011;26405;51.850;-2.246;2024-03-22T05:07:15;8.88;;;2.55;;
40717;SDS011;26405;51.850;-2.246;2024-03-22T05:09:42;3.70;;;2.22;;
40717;SDS011;26405;51.850;-2.246;2024-03-22T05:12:07;7.90;;;2.70;;
40717;SDS011;26405;51.850;-2.246;2024-03-22T05:14:32;6.13;;;2.50;;
40717;SDS011;26405;51.850;-2.246;2024-03-22T05:16:58;4.70;;;2.30;;
40717;SDS011;26405;51.850;-2.246;2024-03-22T05:19:23;4.93;;;2.10;;
40717;SDS011;26405;51.850;-2.246;2024-03-22T05:21:49;5.60;;;2.35;;
40717;SDS011;26405;51.850;-2.246;2024-03-22T05:24:14;3.30;;;1.85;;
40717;SDS011;26405;51.850;-2.246;2024-03-22T05:26:39;3.47;;;2.28;;
40717;SDS011;26405;51.850;-2.246;2024-03-22T05:29:05;3.88;;;2.22;;
40717;SDS011;26405;51.850;-2.246;2024-03-22T05:31:30;2.95;;;2.20;;
40717;SDS011;26405;51.850;-2.246;2024-03-22T05:33:56;3.05;;;1.88;;
40717;SDS011;26405;51.850;-2.246;2024-03-22T05:36:21;6.93;;;1.83;;
40717;SDS011;26405;51.850;-2.246;2024-03-22T05:38:46;1.33;;;1.23;;
40717;SDS011;26405;51.850;-2.246;2024-03-22T05:41:12;1.60;;;1.50;;
40717;SDS011;26405;51.850;-2.246;2024-03-22T05:43:37;3.47;;;1.70;;
40717;SDS011;26405;51.850;-2.246;2024-03-22T05:46:02;1.70;;;1.40;;
40717;SDS011;26405;51.850;-2.246;2024-03-22T05:48:27;3.30;;;1.60;;
40717;SDS011;26405;51.850;-2.246;2024-03-22T05:50:53;2.28;;;1.48;;
40717;SDS011;26405;51.850;-2.246;2024-03-22T05:53:18;3.50;;;1.80;;
40717;SDS011;26405;51.850;-2.246;2024-03-22T05:55:44;2.63;;;1.65;;
40717;SDS011;26405;51.850;-2.246;2024-03-22T05:58:09;2.17;;;1.50;;
40717;SDS011;26405;51.850;-2.246;2024-03-22T06:00:34;3.10;;;1.55;;
40717;SDS011;26405;51.850;-2.246;2024-03-22T06:03:00;2.40;;;1.58;;
40717;SDS011;26405;51.850;-2.246;2024-03-22T06:05:25;1.85;;;1.58;;
40717;SDS011;26405;51.850;-2.246;2024-03-22T06:07:50;1.65;;;1.17;;
40717;SDS011;26405;51.850;-2.246;2024-03-22T06:10:16;2.95;;;1.35;;
40717;SDS011;26405;51.850;-2.246;2024-03-22T06:12:42;1.70;;;1.30;;
40717;SDS011;26405;51.850;-2.246;2024-03-22T06:15:09;1.17;;;1.00;;
40717;SDS011;26405;51.850;-2.246;2024-03-22T06:17:34;1.50;;;1.40;;
40717;SDS011;26405;51.850;-2.246;2024-03-22T06:20:00;1.45;;;1.30;;
40717;SDS011;26405;51.850;-2.246;2024-03-22T06:22:25;3.30;;;1.02;;
40717;SDS011;26405;51.850;-2.246;2024-03-22T06:24:51;3.60;;;1.38;;
40717;SDS011;26405;51.850;-2.246;2024-03-22T06:27:16;2.97;;;1.40;;
40717;SDS011;26405;51.850;-2.246;2024-03-22T06:29:42;1.73;;;1.02;;
40717;SDS011;26405;51.850;-2.246;2024-03-22T06:32:07;1.10;;;1.10;;
40717;SDS011;26405;51.850;-2.246;2024-03-22T06:34:33;1.13;;;0.95;;
40717;SDS011;26405;51.850;-2.246;2024-03-22T06:36:58;1.88;;;0.95;;
40717;SDS011;26405;51.850;-2.246;2024-03-22T06:39:23;1.17;;;1.08;;
40717;SDS011;26405;51.850;-2.246;2024-03-22T06:41:49;2.70;;;1.30;;
40717;SDS011;26405;51.850;-2.246;2024-03-22T06:44:14;1.95;;;1.13;;
40717;SDS011;26405;51.850;-2.246;2024-03-22T06:46:39;4.28;;;1.10;;
40717;SDS011;26405;51.850;-2.246;2024-03-22T06:49:05;0.90;;;0.90;;
40717;SDS011;26405;51.850;-2.246;2024-03-22T06:51:30;1.33;;;1.10;;
40717;SDS011;26405;51.850;-2.246;2024-03-22T06:53:55;1.40;;;1.25;;
40717;SDS011;26405;51.850;-2.246;2024-03-22T06:56:20;1.77;;;1.00;;
40717;SDS011;26405;51.850;-2.246;2024-03-22T06:58:46;2.47;;;1.27;;
40717;SDS011;26405;51.850;-2.246;2024-03-22T07:01:12;1.58;;;1.10;;
40717;SDS011;26405;51.850;-2.246;2024-03-22T07:03:37;2.53;;;1.20;;
40717;SDS011;26405;51.850;-2.246;2024-03-22T07:06:02;2.53;;;1.02;;
40717;SDS011;26405;51.850;-2.246;2024-03-22T07:08:28;1.40;;;1.10;;
40717;SDS011;26405;51.850;-2.246;2024-03-22T07:10:53;1.48;;;1.00;;
40717;SDS011;26405;51.850;-2.246;2024-03-22T07:13:21;3.95;;;1.27;;
40717;SDS011;26405;51.850;-2.246;2024-03-22T07:15:47;1.30;;;1.13;;
40717;SDS011;26405;51.850;-2.246;2024-03-22T07:18:13;3.75;;;1.73;;
40717;SDS011;26405;51.850;-2.246;2024-03-22T07:20:38;2.30;;;1.40;;
40717;SDS011;26405;51.850;-2.246;2024-03-22T07:23:03;5.20;;;1.85;;
40717;SDS011;26405;51.850;-2.246;2024-03-22T07:25:29;5.10;;;1.58;;
40717;SDS011;26405;51.850;-2.246;2024-03-22T07:27:54;2.97;;;1.60;;
40717;SDS011;26405;51.850;-2.246;2024-03-22T07:30:20;4.90;;;1.88;;
40717;SDS011;26405;51.850;-2.246;2024-03-22T07:32:46;3.13;;;1.35;;
40717;SDS011;26405;51.850;-2.246;2024-03-22T07:35:13;4.23;;;1.87;;
40717;SDS011;26405;51.850;-2.246;2024-03-22T07:37:38;4.97;;;1.88;;
40717;SDS011;26405;51.850;-2.246;2024-03-22T07:40:04;7.30;;;2.40;;
40717;SDS011;26405;51.850;-2.246;2024-03-22T07:42:30;5.22;;;1.77;;
40717;SDS011;26405;51.850;-2.246;2024-03-22T07:44:55;4.90;;;1.90;;
40717;SDS011;26405;51.850;-2.246;2024-03-22T07:47:21;5.53;;;2.30;;
40717;SDS011;26405;51.850;-2.246;2024-03-22T07:49:46;6.78;;;2.22;;
40717;SDS011;26405;51.850;-2.246;2024-03-22T07:52:11;7.78;;;2.45;;
40717;SDS011;26405;51.850;-2.246;2024-03-22T07:54:36;5.78;;;2.38;;
40717;SDS011;26405;51.850;-2.246;2024-03-22T07:57:02;6.85;;;2.40;;
40717;SDS011;26405;51.850;-2.246;2024-03-22T07:59:28;5.75;;;2.13;;
40717;SDS011;26405;51.850;-2.246;2024-03-22T08:01:54;7.25;;;2.60;;
40717;SDS011;26405;51.850;-2.246;2024-03-22T08:04:19;8.60;;;2.88;;
40717;SDS011;26405;51.850;-2.246;2024-03-22T08:06:45;12.02;;;3.03;;
40717;SDS011;26405;51.850;-2.246;2024-03-22T08:09:11;8.63;;;2.50;;
40717;SDS011;26405;51.850;-2.246;2024-03-22T08:11:36;12.48;;;3.22;;
40717;SDS011;26405;51.850;-2.246;2024-03-22T08:14:01;10.93;;;2.75;;
40717;SDS011;26405;51.850;-2.246;2024-03-22T08:21:35;10.88;;;2.88;;
40717;SDS011;26405;51.850;-2.246;2024-03-22T08:24:01;13.63;;;3.28;;
40717;SDS011;26405;51.850;-2.246;2024-03-22T08:26:27;10.35;;;2.92;;
40717;SDS011;26405;51.850;-2.246;2024-03-22T08:28:54;14.18;;;3.40;;
40717;SDS011;26405;51.850;-2.246;2024-03-22T08:31:22;15.90;;;3.25;;
40717;SDS011;26405;51.850;-2.246;2024-03-22T08:33:50;15.70;;;3.20;;
40717;SDS011;26405;51.850;-2.246;2024-03-22T08:36:19;14.30;;;3.25;;
40717;SDS011;26405;51.850;-2.246;2024-03-22T08:38:45;15.15;;;3.97;;
40717;SDS011;26405;51.850;-2.246;2024-03-22T08:41:10;18.10;;;4.18;;
40717;SDS011;26405;51.850;-2.246;2024-03-22T08:43:36;17.25;;;4.10;;
40717;SDS011;26405;51.850;-2.246;2024-03-22T08:46:04;19.00;;;4.20;;
40717;SDS011;26405;51.850;-2.246;2024-03-22T08:48:29;18.08;;;4.47;;
40717;SDS011;26405;51.850;-2.246;2024-03-22T08:51:01;14.68;;;4.15;;
40717;SDS011;26405;51.850;-2.246;2024-03-22T08:53:28;18.77;;;4.40;;
40717;SDS011;26405;51.850;-2.246;2024-03-22T08:55:53;19.10;;;4.45;;
40717;SDS011;26405;51.850;-2.246;2024-03-22T08:58:23;15.63;;;3.80;;
40717;SDS011;26405;51.850;-2.246;2024-03-22T09:00:48;15.60;;;4.30;;
40717;SDS011;26405;51.850;-2.246;2024-03-22T09:03:15;17.45;;;4.28;;
40717;SDS011;26405;51.850;-2.246;2024-03-22T09:05:40;18.88;;;4.80;;
40717;SDS011;26405;51.850;-2.246;2024-03-22T09:08:10;19.73;;;4.50;;
40717;SDS011;26405;51.850;-2.246;2024-03-22T09:10:35;19.73;;;4.70;;
40717;SDS011;26405;51.850;-2.246;2024-03-22T09:13:03;14.90;;;3.97;;
40717;SDS011;26405;51.850;-2.246;2024-03-22T09:15:32;19.13;;;4.45;;
40717;SDS011;26405;51.850;-2.246;2024-03-22T09:17:58;19.17;;;4.72;;
40717;SDS011;26405;51.850;-2.246;2024-03-22T09:20:23;18.67;;;4.50;;
40717;SDS011;26405;51.850;-2.246;2024-03-22T09:22:49;19.63;;;4.60;;
40717;SDS011;26405;51.850;-2.246;2024-03-22T09:25:14;21.77;;;4.80;;
40717;SDS011;26405;51.850;-2.246;2024-03-22T09:30:40;21.00;;;4.97;;
40717;SDS011;26405;51.850;-2.246;2024-03-22T09:33:08;16.00;;;4.53;;
40717;SDS011;26405;51.850;-2.246;2024-03-22T09:35:35;18.17;;;4.75;;
40717;SDS011;26405;51.850;-2.246;2024-03-22T09:38:01;20.95;;;4.47;;
40717;SDS011;26405;51.850;-2.246;2024-03-22T09:40:27;22.45;;;5.28;;
40717;SDS011;26405;51.850;-2.246;2024-03-22T09:42:53;21.92;;;4.75;;
40717;SDS011;26405;51.850;-2.246;2024-03-22T09:45:18;24.70;;;5.03;;
40717;SDS011;26405;51.850;-2.246;2024-03-22T09:47:45;20.95;;;5.32;;
40717;SDS011;26405;51.850;-2.246;2024-03-22T09:50:10;20.75;;;5.35;;
40717;SDS011;26405;51.850;-2.246;2024-03-22T09:52:37;20.45;;;4.75;;
40717;SDS011;26405;51.850;-2.246;2024-03-22T09:55:03;26.08;;;5.03;;
40717;SDS011;26405;51.850;-2.246;2024-03-22T09:57:29;20.88;;;4.78;;
40717;SDS011;26405;51.850;-2.246;2024-03-22T09:59:58;19.57;;;5.13;;
40717;SDS011;26405;51.850;-2.246;2024-03-22T10:02:24;25.42;;;5.88;;
40717;SDS011;26405;51.850;-2.246;2024-03-22T10:04:59;24.67;;;5.53;;
40717;SDS011;26405;51.850;-2.246;2024-03-22T10:07:24;22.60;;;5.28;;
40717;SDS011;26405;51.850;-2.246;2024-03-22T10:09:51;23.17;;;5.30;;
40717;SDS011;26405;51.850;-2.246;2024-03-22T10:12:18;28.50;;;5.15;;
40717;SDS011;26405;51.850;-2.246;2024-03-22T10:14:43;24.33;;;4.70;;
40717;SDS011;26405;51.850;-2.246;2024-03-22T10:17:09;22.15;;;4.90;;
40717;SDS011;26405;51.850;-2.246;2024-03-22T10:19:53;18.73;;;5.50;;
40717;SDS011;26405;51.850;-2.246;2024-03-22T10:22:21;23.27;;;4.90;;
40717;SDS011;26405;51.850;-2.246;2024-03-22T10:24:46;22.98;;;5.55;;
40717;SDS011;26405;51.850;-2.246;2024-03-22T10:27:16;21.45;;;5.53;;
40717;SDS011;26405;51.850;-2.246;2024-03-22T10:29:43;23.45;;;5.30;;
40717;SDS011;26405;51.850;-2.246;2024-03-22T10:32:12;26.48;;;5.65;;
40717;SDS011;26405;51.850;-2.246;2024-03-22T10:34:37;21.98;;;5.13;;
40717;SDS011;26405;51.850;-2.246;2024-03-22T10:37:12;21.15;;;5.28;;
40717;SDS011;26405;51.850;-2.246;2024-03-22T10:42:13;20.92;;;5.50;;
40717;SDS011;26405;51.850;-2.246;2024-03-22T10:44:39;20.98;;;4.95;;
40717;SDS011;26405;51.850;-2.246;2024-03-22T10:47:09;25.05;;;5.45;;
40717;SDS011;26405;51.850;-2.246;2024-03-22T10:49:41;22.92;;;5.45;;
40717;SDS011;26405;51.850;-2.246;2024-03-22T10:52:09;20.17;;;5.65;;
40717;SDS011;26405;51.850;-2.246;2024-03-22T10:54:39;22.13;;;5.90;;
40717;SDS011;26405;51.850;-2.246;2024-03-22T10:57:12;25.08;;;5.43;;
40717;SDS011;26405;51.850;-2.246;2024-03-22T10:59:42;21.52;;;5.45;;
40717;SDS011;26405;51.850;-2.246;2024-03-22T11:02:10;22.30;;;5.40;;
40717;SDS011;26405;51.850;-2.246;2024-03-22T11:04:39;20.50;;;4.82;;
40717;SDS011;26405;51.850;-2.246;2024-03-22T11:09:55;20.73;;;5.50;;
40717;SDS011;26405;51.850;-2.246;2024-03-22T11:12:29;21.23;;;4.90;;
40717;SDS011;26405;51.850;-2.246;2024-03-22T11:15:02;24.45;;;4.93;;
40717;SDS011;26405;51.850;-2.246;2024-03-22T11:17:28;22.30;;;5.05;;
40717;SDS011;26405;51.850;-2.246;2024-03-22T11:19:57;18.63;;;4.93;;
40717;SDS011;26405;51.850;-2.246;2024-03-22T11:22:22;23.50;;;4.95;;
40717;SDS011;26405;51.850;-2.246;2024-03-22T11:24:48;22.65;;;6.82;;
40717;SDS011;26405;51.850;-2.246;2024-03-22T11:27:13;20.05;;;5.55;;
40717;SDS011;26405;51.850;-2.246;2024-03-22T11:29:44;23.80;;;5.32;;
40717;SDS011;26405;51.850;-2.246;2024-03-22T11:32:17;23.92;;;6.20;;
40717;SDS011;26405;51.850;-2.246;2024-03-22T11:34:43;22.67;;;4.65;;
40717;SDS011;26405;51.850;-2.246;2024-03-22T11:37:13;20.77;;;4.78;;
40717;SDS011;26405;51.850;-2.246;2024-03-22T11:42:08;21.40;;;4.72;;
40717;SDS011;26405;51.850;-2.246;2024-03-22T11:44:34;21.75;;;5.30;;
40717;SDS011;26405;51.850;-2.246;2024-03-22T11:47:00;21.65;;;5.15;;
40717;SDS011;26405;51.850;-2.246;2024-03-22T11:49:28;17.88;;;4.72;;
40717;SDS011;26405;51.850;-2.246;2024-03-22T11:51:55;24.30;;;6.22;;
40717;SDS011;26405;51.850;-2.246;2024-03-22T11:54:31;24.08;;;10.65;;
40717;SDS011;26405;51.850;-2.246;2024-03-22T11:56:58;23.57;;;7.73;;
40717;SDS011;26405;51.850;-2.246;2024-03-22T11:59:23;20.17;;;6.07;;
40717;SDS011;26405;51.850;-2.246;2024-03-22T12:01:51;25.20;;;6.20;;
40717;SDS011;26405;51.850;-2.246;2024-03-22T12:07:23;22.95;;;5.78;;
40717;SDS011;26405;51.850;-2.246;2024-03-22T12:09:58;19.70;;;4.93;;
40717;SDS011;26405;51.850;-2.246;2024-03-22T12:12:24;22.27;;;4.85;;
40717;SDS011;26405;51.850;-2.246;2024-03-22T12:14:51;17.42;;;4.45;;
40717;SDS011;26405;51.850;-2.246;2024-03-22T12:17:23;19.08;;;4.60;;
40717;SDS011;26405;51.850;-2.246;2024-03-22T12:19:52;20.48;;;4.47;;
40717;SDS011;26405;51.850;-2.246;2024-03-22T12:22:18;16.67;;;3.80;;
40717;SDS011;26405;51.850;-2.246;2024-03-22T12:24:45;22.67;;;4.72;;
40717;SDS011;26405;51.850;-2.246;2024-03-22T12:27:11;16.52;;;4.13;;
40717;SDS011;26405;51.850;-2.246;2024-03-22T12:29:37;16.40;;;4.22;;
40717;SDS011;26405;51.850;-2.246;2024-03-22T12:32:02;19.77;;;4.63;;
40717;SDS011;26405;51.850;-2.246;2024-03-22T12:34:29;19.48;;;4.55;;
40717;SDS011;26405;51.850;-2.246;2024-03-22T12:36:58;17.85;;;4.50;;
40717;SDS011;26405;51.850;-2.246;2024-03-22T12:39:27;20.50;;;4.97;;
40717;SDS011;26405;51.850;-2.246;2024-03-22T12:41:52;18.30;;;4.38;;
40717;SDS011;26405;51.850;-2.246;2024-03-22T12:44:18;18.38;;;4.32;;
40717;SDS011;26405;51.850;-2.246;2024-03-22T12:46:52;17.15;;;4.10;;
40717;SDS011;26405;51.850;-2.246;2024-03-22T12:49:19;13.93;;;3.88;;
40717;SDS011;26405;51.850;-2.246;2024-03-22T12:51:44;16.05;;;4.28;;
40717;SDS011;26405;51.850;-2.246;2024-03-22T12:54:16;17.95;;;3.60;;
40717;SDS011;26405;51.850;-2.246;2024-03-22T12:56:47;18.20;;;3.55;;
40717;SDS011;26405;51.850;-2.246;2024-03-22T12:59:20;14.07;;;3.88;;
40717;SDS011;26405;51.850;-2.246;2024-03-22T13:01:49;16.90;;;3.90;;
40717;SDS011;26405;51.850;-2.246;2024-03-22T13:04:15;17.30;;;3.70;;
40717;SDS011;26405;51.850;-2.246;2024-03-22T13:06:44;16.20;;;3.67;;
40717;SDS011;26405;51.850;-2.246;2024-03-22T13:09:10;14.90;;;3.50;;
40717;SDS011;26405;51.850;-2.246;2024-03-22T13:11:37;17.05;;;3.80;;
40717;SDS011;26405;51.850;-2.246;2024-03-22T13:14:06;17.27;;;4.13;;
40717;SDS011;26405;51.850;-2.246;2024-03-22T13:16:37;16.75;;;3.70;;
40717;SDS011;26405;51.850;-2.246;2024-03-22T13:19:05;19.08;;;3.90;;
40717;SDS011;26405;51.850;-2.246;2024-03-22T13:21:39;15.43;;;3.78;;
40717;SDS011;26405;51.850;-2.246;2024-03-22T13:24:05;15.02;;;3.17;;
40717;SDS011;26405;51.850;-2.246;2024-03-22T13:26:39;16.00;;;3.72;;
40717;SDS011;26405;51.850;-2.246;2024-03-22T13:29:05;16.63;;;3.50;;
40717;SDS011;26405;51.850;-2.246;2024-03-22T13:31:35;15.98;;;4.03;;
40717;SDS011;26405;51.850;-2.246;2024-03-22T13:34:01;14.02;;;3.90;;
40717;SDS011;26405;51.850;-2.246;2024-03-22T13:36:35;15.43;;;4.45;;
40717;SDS011;26405;51.850;-2.246;2024-03-22T13:39:19;16.73;;;3.60;;
40717;SDS011;26405;51.850;-2.246;2024-03-22T13:41:44;16.45;;;4.15;;
40717;SDS011;26405;51.850;-2.246;2024-03-22T13:44:11;17.60;;;4.95;;
40717;SDS011;26405;51.850;-2.246;2024-03-22T13:46:37;17.58;;;4.57;;
40717;SDS011;26405;51.850;-2.246;2024-03-22T13:49:12;13.40;;;3.80;;
40717;SDS011;26405;51.850;-2.246;2024-03-22T13:51:38;18.23;;;4.18;;
40717;SDS011;26405;51.850;-2.246;2024-03-22T13:54:03;16.40;;;3.92;;
40717;SDS011;26405;51.850;-2.246;2024-03-22T13:56:38;15.52;;;3.83;;
40717;SDS011;26405;51.850;-2.246;2024-03-22T13:59:04;17.75;;;4.70;;
40717;SDS011;26405;51.850;-2.246;2024-03-22T14:01:36;16.08;;;3.97;;
40717;SDS011;26405;51.850;-2.246;2024-03-22T14:04:02;18.23;;;4.22;;
40717;SDS011;26405;51.850;-2.246;2024-03-22T14:06:28;13.55;;;3.53;;
40717;SDS011;26405;51.850;-2.246;2024-03-22T14:08:53;15.07;;;3.60;;
40717;SDS011;26405;51.850;-2.246;2024-03-22T14:11:25;18.80;;;5.88;;
40717;SDS011;26405;51.850;-2.246;2024-03-22T14:13:50;15.48;;;4.95;;
40717;SDS011;26405;51.850;-2.246;2024-03-22T14:16:16;19.00;;;4.13;;
40717;SDS011;26405;51.850;-2.246;2024-03-22T14:18:47;18.15;;;3.78;;
40717;SDS011;26405;51.850;-2.246;2024-03-22T14:21:14;17.63;;;3.78;;
40717;SDS011;26405;51.850;-2.246;2024-03-22T14:23:44;13.23;;;4.03;;
40717;SDS011;26405;51.850;-2.246;2024-03-22T14:26:13;14.50;;;3.73;;
40717;SDS011;26405;51.850;-2.246;2024-03-22T14:28:44;16.27;;;3.30;;
40717;SDS011;26405;51.850;-2.246;2024-03-22T14:31:18;12.80;;;3.28;;
40717;SDS011;26405;51.850;-2.246;2024-03-22T14:33:45;12.37;;;3.30;;
40717;SDS011;26405;51.850;-2.246;2024-03-22T14:36:13;14.07;;;3.50;;
40717;SDS011;26405;51.850;-2.246;2024-03-22T14:38:39;16.27;;;3.93;;
40717;SDS011;26405;51.850;-2.246;2024-03-22T14:41:06;17.00;;;4.15;;
40717;SDS011;26405;51.850;-2.246;2024-03-22T14:43:33;13.88;;;3.60;;
40717;SDS011;26405;51.850;-2.246;2024-03-22T14:45:59;16.13;;;5.20;;